sensor_id;sensor_type;location;lat;lon;timestamp;pressure;altitude;pressure_sealevel;temperature;humidity
61740;BME280;47645;45.288;12.038;2023-08-17T00:01:15;1015.4860237841048;;;24.902734375;77.60453691860434
61740;BME280;47645;45.288;12.038;2023-08-17T00:11:16;1015.4119988816501;;;24.70390625;79.09665421365605
61740;BME280;47645;45.288;12.038;2023-08-17T00:21:18;1015.512668597905;;;24.999609375;76.16679576106701
61740;BME280;47645;45.288;12.038;2023-08-17T00:31:19;1015.5329656074936;;;24.5203125;78.83504150239084
61740;BME280;47645;45.288;12.038;2023-08-17T00:41:21;1015.6854772931299;;;23.862890625;88.69563227083383
61740;BME280;47645;45.288;12.038;2023-08-17T00:51:24;1015.6721068550082;;;24.4388671875;82.70380571694646
61740;BME280;47645;45.288;12.038;2023-08-17T01:01:24;1015.5613252512971;;;24.17890625;86.2861870807932
61740;BME280;47645;45.288;12.038;2023-08-17T01:11:31;1015.3045042833267;;;24.301171875;82.39919068281408
61740;BME280;47645;45.288;12.038;2023-08-17T01:21:36;1015.2459401407468;;;24.2501953125;82.41685281022352
61740;BME280;47645;45.288;12.038;2023-08-17T01:31:36;1015.1639855471698;;;24.5408203125;77.22069701463695
61740;BME280;47645;45.288;12.038;2023-08-17T01:41:32;1015.3007295310291;;;24.0513671875;86.3178606300546
61740;BME280;47645;45.288;12.038;2023-08-17T01:51:32;1015.260444143759;;;23.7505859375;81.82702100836234
61740;BME280;47645;45.288;12.038;2023-08-17T02:01:33;1015.2157239704978;;;23.7609375;88.22846439049732
61740;BME280;47645;45.288;12.038;2023-08-17T02:11:34;1015.1802621514502;;;23.5875;89.6675207978526
61740;BME280;47645;45.288;12.038;2023-08-17T02:21:36;1015.2433006931965;;;23.4244140625;89.08106154930684
61740;BME280;47645;45.288;12.038;2023-08-17T02:31:37;1015.1318919161853;;;23.4091796875;87.01635759915189
61740;BME280;47645;45.288;12.038;2023-08-17T02:41:39;1015.1194140938107;;;23.55703125;88.75510355976644
61740;BME280;47645;45.288;12.038;2023-08-17T02:51:40;1015.149485056688;;;23.154296875;91.38493716092873
61740;BME280;47645;45.288;12.038;2023-08-17T03:01:43;1015.1017795004346;;;23.0267578125;93.15610851094546
61740;BME280;47645;45.288;12.038;2023-08-17T03:11:43;1015.0916340985078;;;23.164453125;91.28993410964154
61740;BME280;47645;45.288;12.038;2023-08-17T03:21:45;1015.0862279613441;;;23.2103515625;91.71740273236426
61740;BME280;47645;45.288;12.038;2023-08-17T03:31:46;1015.0685576800834;;;23.0931640625;93.55115771393521
61740;BME280;47645;45.288;12.038;2023-08-17T03:41:47;1015.1383566207762;;;23.0267578125;94.28729230708106
61740;BME280;47645;45.288;12.038;2023-08-17T03:51:49;1015.1876458871197;;;22.7822265625;96.67679456472553
61740;BME280;47645;45.288;12.038;2023-08-17T04:01:50;1015.143897311864;;;22.9044921875;95.43903929158058
61740;BME280;47645;45.288;12.038;2023-08-17T04:11:51;1015.166201689763;;;22.9453125;91.27644200630695
61740;BME280;47645;45.288;12.038;2023-08-17T04:21:53;1015.2735880173444;;;23.1185546875;93.53142233207961
61740;BME280;47645;45.288;12.038;2023-08-17T04:31:54;1015.2103116731623;;;23.154296875;92.77418809213188
61740;BME280;47645;45.288;12.038;2023-08-17T04:41:56;1015.2337713677239;;;23.2919921875;92.26617499395721
61740;BME280;47645;45.288;12.038;2023-08-17T04:51:57;1015.3455749238439;;;23.2154296875;92.80976502473206
61740;BME280;47645;45.288;12.038;2023-08-17T05:01:59;1015.3508742105164;;;23.251171875;92.779804339963
61740;BME280;47645;45.288;12.038;2023-08-17T05:12:00;1015.4013135267196;;;23.3326171875;92.67491237416843
61740;BME280;47645;45.288;12.038;2023-08-17T05:22:01;1015.3489433593064;;;23.3021484375;93.85967827363277
61740;BME280;47645;45.288;12.038;2023-08-17T05:32:04;1015.4035121993686;;;23.8525390625;90.8885692820362
61740;BME280;47645;45.288;12.038;2023-08-17T05:42:05;1015.366717979075;;;23.5365234375;92.84213372796826
61740;BME280;47645;45.288;12.038;2023-08-17T05:52:06;1015.3992530015815;;;23.6232421875;93.482382346665
61740;BME280;47645;45.288;12.038;2023-08-17T06:02:07;1015.3035639189293;;;24.194140625;90.18064217774959
61740;BME280;47645;45.288;12.038;2023-08-17T06:12:09;1015.2367475203422;;;24.8109375;85.98275406386922
61740;BME280;47645;45.288;12.038;2023-08-17T06:22:10;1015.2196321879393;;;25.1576171875;80.37958066859792
61740;BME280;47645;45.288;12.038;2023-08-17T06:32:12;1015.2352855040567;;;25.9119140625;83.39181446880302
61740;BME280;47645;45.288;12.038;2023-08-17T06:42:13;1015.3257512844866;;;26.544140625;79.40333635925215
61740;BME280;47645;45.288;12.038;2023-08-17T06:52:15;1015.3483828550882;;;26.737890625;78.50394849665972
61740;BME280;47645;45.288;12.038;2023-08-17T07:02:16;1015.3949130229894;;;26.9111328125;76.81204025828441
61740;BME280;47645;45.288;12.038;2023-08-17T07:12:18;1015.501523393493;;;27.0947265625;80.88342024285295
61740;BME280;47645;45.288;12.038;2023-08-17T07:22:19;1015.7035221665767;;;27.46171875;79.53224480824717
61740;BME280;47645;45.288;12.038;2023-08-17T07:32:21;1015.7585506047715;;;27.757421875;77.87678195045045
61740;BME280;47645;45.288;12.038;2023-08-17T07:42:22;1015.8522386381684;;;27.6451171875;78.82139952517086
61740;BME280;47645;45.288;12.038;2023-08-17T07:52:24;1015.7761848261712;;;27.803125;79.42848733842338
61740;BME280;47645;45.288;12.038;2023-08-17T08:02:25;1015.8611883432865;;;28.0734375;78.61358002945579
61740;BME280;47645;45.288;12.038;2023-08-17T08:12:27;1015.8994282318707;;;27.9154296875;78.20837931831127
61740;BME280;47645;45.288;12.038;2023-08-17T08:22:28;1015.8608987834205;;;28.282421875;71.2167298580557
61740;BME280;47645;45.288;12.038;2023-08-17T08:32:30;1015.882276751379;;;28.7666015625;72.4885977177207
61740;BME280;47645;45.288;12.038;2023-08-17T08:42:31;1015.9776259736582;;;28.914453125;71.6874709538702
61740;BME280;47645;45.288;12.038;2023-08-17T08:52:34;1015.8955706211594;;;29.4853515625;69.60562633098475
61740;BME280;47645;45.288;12.038;2023-08-17T09:02:34;1015.8897925374051;;;29.4751953125;66.69912216399918
61740;BME280;47645;45.288;12.038;2023-08-17T09:12:36;1015.9162665623708;;;29.7658203125;66.50025864657036
61740;BME280;47645;45.288;12.038;2023-08-17T09:22:38;1015.8295070082902;;;29.730078125;67.33617623208563
61740;BME280;47645;45.288;12.038;2023-08-17T09:32:41;1015.7241966126144;;;30.33671875;63.955604390355816
61740;BME280;47645;45.288;12.038;2023-08-17T09:42:41;1015.6510220010161;;;29.8576171875;63.27348326850748
61740;BME280;47645;45.288;12.038;2023-08-17T09:52:43;1015.6452044769508;;;30.515234375;59.295690928654984
61740;BME280;47645;45.288;12.038;2023-08-17T10:02:45;1015.6585987386984;;;31.213671875;60.58550244415295
61740;BME280;47645;45.288;12.038;2023-08-17T10:12:51;1015.6395990598731;;;31.320703125;58.30258903306671
61740;BME280;47645;45.288;12.038;2023-08-17T10:22:52;1015.5163010975439;;;32.8296875;54.07399484863913
61740;BME280;47645;45.288;12.038;2023-08-17T10:32:50;1015.4521631115;;;32.467578125;52.818602233183135
61740;BME280;47645;45.288;12.038;2023-08-17T10:42:54;1015.4076054248749;;;32.4625;53.053884539327164
61740;BME280;47645;45.288;12.038;2023-08-17T10:52:54;1015.3257075791503;;;34.3845703125;51.08643421218596
61740;BME280;47645;45.288;12.038;2023-08-17T11:02:57;1015.3347933028147;;;35.4908203125;48.35412937736205
61740;BME280;47645;45.288;12.038;2023-08-17T11:13:01;1015.3071047539541;;;35.9138671875;47.73660041026267
61740;BME280;47645;45.288;12.038;2023-08-17T11:23:01;1015.120496691279;;;36.561328125;44.94557975162065
61740;BME280;47645;45.288;12.038;2023-08-17T11:33:03;1015.0944061132931;;;35.9904296875;41.74814259892482
61740;BME280;47645;45.288;12.038;2023-08-17T11:43:05;1014.9982762211155;;;35.832421875;42.04540279381203
61740;BME280;47645;45.288;12.038;2023-08-17T11:53:07;1014.9339279802032;;;37.066015625;40.63170035665414
61740;BME280;47645;45.288;12.038;2023-08-17T12:03:09;1014.8287727360905;;;35.939453125;42.33630129889876
61740;BME280;47645;45.288;12.038;2023-08-17T12:13:12;1014.7525925099758;;;37.03046875;39.81565116207678
61740;BME280;47645;45.288;12.038;2023-08-17T12:23:13;1014.6342407659863;;;38.11640625;39.06153330488863
61740;BME280;47645;45.288;12.038;2023-08-17T12:33:15;1014.5792211945497;;;36.841796875;39.03085734502794
61740;BME280;47645;45.288;12.038;2023-08-17T12:43:17;1014.479509485276;;;38.218359375;36.84315138785593
61740;BME280;47645;45.288;12.038;2023-08-17T12:53:19;1014.4518400969401;;;39.1818359375;39.93178124165301
61740;BME280;47645;45.288;12.038;2023-08-17T13:03:21;1014.2994270480723;;;39.0951171875;39.41766518710203
61740;BME280;47645;45.288;12.038;2023-08-17T13:13:23;1014.213606964144;;;39.40625;38.37264197580208
61740;BME280;47645;45.288;12.038;2023-08-17T13:23:26;1014.1976565835231;;;38.7892578125;34.841256298505584
61740;BME280;47645;45.288;12.038;2023-08-17T13:33:28;1014.1475946911637;;;38.8607421875;40.62198828534988
61740;BME280;47645;45.288;12.038;2023-08-17T13:43:30;1014.0926407140479;;;39.314453125;37.27125560202765
61740;BME280;47645;45.288;12.038;2023-08-17T13:53:32;1013.9829242020801;;;39.1615234375;39.237547794669446
61740;BME280;47645;45.288;12.038;2023-08-17T14:03:34;1013.9547141258455;;;39.605078125;38.10072345295538
61740;BME280;47645;45.288;12.038;2023-08-17T14:13:37;1013.976641547707;;;39.5234375;37.09475795823007
61740;BME280;47645;45.288;12.038;2023-08-17T14:23:39;1014.0020647093678;;;39.6865234375;38.89709796132889
61740;BME280;47645;45.288;12.038;2023-08-17T14:33:41;1014.1680992366248;;;39.29921875;39.409888405020105
61740;BME280;47645;45.288;12.038;2023-08-17T14:43:43;1014.1193285175254;;;38.4935546875;37.34773550653322
61740;BME280;47645;45.288;12.038;2023-08-17T14:53:46;1014.20490444479;;;37.6421875;42.590501817685556
61740;BME280;47645;45.288;12.038;2023-08-17T15:03:48;1014.1626954338566;;;36.4033203125;43.92291084753177
61740;BME280;47645;45.288;12.038;2023-08-17T15:13:50;1014.0833597932974;;;36.250390625;42.347885779424786
61740;BME280;47645;45.288;12.038;2023-08-17T15:23:53;1014.0547867611704;;;36.347265625;42.193205255762926
61740;BME280;47645;45.288;12.038;2023-08-17T15:33:54;1014.0415872037063;;;36.8060546875;45.16677241680703
61740;BME280;47645;45.288;12.038;2023-08-17T15:43:56;1014.0295131826712;;;36.530859375;42.90062424069766
61740;BME280;47645;45.288;12.038;2023-08-17T15:53:58;1014.0067699380119;;;34.95546875;45.962175889925135
61740;BME280;47645;45.288;12.038;2023-08-17T16:04:00;1013.8725466767489;;;33.7166015625;48.63237594862228
61740;BME280;47645;45.288;12.038;2023-08-17T16:14:03;1013.7360810880344;;;33.069140625;52.61508884323759
61740;BME280;47645;45.288;12.038;2023-08-17T16:24:05;1013.5750573058197;;;33.94609375;50.94854812806616
61740;BME280;47645;45.288;12.038;2023-08-17T16:34:06;1013.5361778328864;;;34.175390625;50.74027965842194
61740;BME280;47645;45.288;12.038;2023-08-17T16:44:08;1013.5055857435077;;;33.951171875;52.635163992488835
61740;BME280;47645;45.288;12.038;2023-08-17T16:54:12;1013.3968898145614;;;33.553515625;53.64538855872246
61740;BME280;47645;45.288;12.038;2023-08-17T17:04:12;1013.3577981937258;;;33.069140625;55.115304245944564
61740;BME280;47645;45.288;12.038;2023-08-17T17:14:14;1013.3617689317033;;;32.3810546875;57.28519984150367
61740;BME280;47645;45.288;12.038;2023-08-17T17:24:16;1013.4820120385006;;;32.7328125;56.60996618103416
61740;BME280;47645;45.288;12.038;2023-08-17T17:34:18;1013.5810346205681;;;32.029296875;59.0846328832094
61740;BME280;47645;45.288;12.038;2023-08-17T17:44:20;1013.5351736302476;;;31.55;60.4179509584237
61740;BME280;47645;45.288;12.038;2023-08-17T17:54:22;1013.6296929464376;;;30.836328125;63.75826599071661
61740;BME280;47645;45.288;12.038;2023-08-17T18:04:24;1013.5733756148643;;;31.009765625;62.85593845967597
61740;BME280;47645;45.288;12.038;2023-08-17T18:14:25;1013.674120236345;;;31.116796875;61.93173518804039
61740;BME280;47645;45.288;12.038;2023-08-17T18:24:27;1013.7937603861542;;;30.805859375;62.910712421223316
61740;BME280;47645;45.288;12.038;2023-08-17T18:34:29;1013.8436477630682;;;30.41328125;64.04097096162339
61740;BME280;47645;45.288;12.038;2023-08-17T18:44:31;1014.0321349152748;;;29.796484375;65.86797153407221
61740;BME280;47645;45.288;12.038;2023-08-17T18:54:33;1014.1921597660978;;;29.5669921875;66.00054763112541
61740;BME280;47645;45.288;12.038;2023-08-17T19:04:34;1014.3982607587282;;;28.8583984375;68.31325532438387
61740;BME280;47645;45.288;12.038;2023-08-17T19:14:36;1014.466998283286;;;28.9603515625;68.11645036598178
61740;BME280;47645;45.288;12.038;2023-08-17T19:24:38;1014.5738701730766;;;28.9451171875;68.35902898291556
61740;BME280;47645;45.288;12.038;2023-08-17T19:34:39;1014.5265528309984;;;28.700390625;69.71350881175772
61740;BME280;47645;45.288;12.038;2023-08-17T19:44:41;1014.5404094110596;;;29.0369140625;67.91254087491353
61740;BME280;47645;45.288;12.038;2023-08-17T19:54:47;1014.4394207965224;;;29.301953125;66.74732484650454
61740;BME280;47645;45.288;12.038;2023-08-17T20:04:44;1014.3489006169401;;;29.108203125;67.73028348354173
61740;BME280;47645;45.288;12.038;2023-08-17T20:14:46;1014.1388906807945;;;28.909375;68.4906860251548
61740;BME280;47645;45.288;12.038;2023-08-17T20:24:47;1014.0672540514205;;;28.195703125;75.72300014014652
61740;BME280;47645;45.288;12.038;2023-08-17T20:34:49;1014.1265139674676;;;28.3435546875;71.13935231226162
61740;BME280;47645;45.288;12.038;2023-08-17T20:49:54;1014.1370528607553;;;27.7166015625;73.78658833834997
61740;BME280;47645;45.288;12.038;2023-08-17T20:54:52;1014.2393478801627;;;27.4462890625;77.28169864800466
61740;BME280;47645;45.288;12.038;2023-08-17T21:04:54;1014.3531734654612;;;27.293359375;84.16534164714699
61740;BME280;47645;45.288;12.038;2023-08-17T21:14:57;1014.6183844055105;;;26.8142578125;86.83905060108792
61740;BME280;47645;45.288;12.038;2023-08-17T21:24:57;1014.7422366728795;;;26.6255859375;88.44875521003087
61740;BME280;47645;45.288;12.038;2023-08-17T21:34:59;1014.9031811876249;;;26.574609375;88.38814714376359
61740;BME280;47645;45.288;12.038;2023-08-17T21:45:01;1015.1169018575569;;;26.2841796875;90.01996958338763
61740;BME280;47645;45.288;12.038;2023-08-17T21:55:02;1015.2241694037195;;;26.1720703125;90.90224802616189
61740;BME280;47645;45.288;12.038;2023-08-17T22:05:05;1015.3134512591251;;;26.06484375;92.35591685207946
61740;BME280;47645;45.288;12.038;2023-08-17T22:10:07;1015.2878374416994;;;26.1158203125;92.74535636226224
61740;BME280;47645;45.288;12.038;2023-08-17T22:20:08;1015.1636383660692;;;26.370703125;90.8216160289766
61740;BME280;47645;45.288;12.038;2023-08-17T22:30:08;1015.3179654505891;;;26.3044921875;91.11750010336547
61740;BME280;47645;45.288;12.038;2023-08-17T22:40:10;1015.4911558540251;;;26.04453125;90.73866860546943
61740;BME280;47645;45.288;12.038;2023-08-17T22:50:11;1015.6818864522503;;;25.9833984375;89.33415526200153
61740;BME280;47645;45.288;12.038;2023-08-17T23:00:13;1015.6199692926078;;;25.7845703125;83.27222768834294
61740;BME280;47645;45.288;12.038;2023-08-17T23:10:14;1015.1951699394813;;;25.952734375;79.33614403324192
61740;BME280;47645;45.288;12.038;2023-08-17T23:20:15;1014.9644958326513;;;25.53984375;83.43126465396789
61740;BME280;47645;45.288;12.038;2023-08-17T23:30:17;1014.8828988171532;;;25.437890625;87.6629033883586
61740;BME280;47645;45.288;12.038;2023-08-17T23:40:19;1014.6974903264759;;;25.5806640625;90.64110105653408
61740;BME280;47645;45.288;12.038;2023-08-17T23:50:20;1014.6876260339319;;;25.855859375;87.02789568532063
